Flight Track Log - Related Links

Times and Time Zones

All times are in EDT time to prevent confusion due to time zone crossing. See the PDT4314 flight status page for this flight to view local times or setup timezone preferences in your user account.

Time Position Orientation Groundspeed Altitude Reporting Facility
EDT Latitude Longitude Course Direction KTS MPH feet Rate Location/Type
Sun 07:48:00 PM 41.8528 -75.8637 180° South  Level Estimated
Sun 07:49:00 PM 41.7984 -75.9006 207° Southwest  Level FlightAware Approximate
Sun 07:50:00 PM 41.7394 -75.8798 154° Southeast  Level Estimated
Sun 07:51:00 PM 41.6804 -75.8590 160° South  Level Estimated
Sun 07:52:00 PM 41.6214 -75.8383 159° South  Level Estimated
Sun 07:53:00 PM 41.5620 -75.8195 167° South  Level FlightAware Approximate
Sun 07:54:00 PM 41.5030 -75.7988 153° Southeast  Level Estimated
Sun 07:55:00 PM 41.4440 -75.7781 161° South  Level Estimated
Sun 07:56:00 PM 41.3874 -75.7478 158° South  Level FlightAware Approximate
Sun 07:57:00 PM 41.3308 -75.7175 158° South  Level FlightAware Approximate
Sun 07:58:00 PM 41.2716 -75.6978 162° South  Level Estimated
Sun 07:59:00 PM 41.2143 -75.6700 160° South  Level FlightAware Approximate
Sun 08:00:00 PM 41.1570 -75.6423 160° South  Level FlightAware Approximate
Sun 08:01:00 PM 41.0996 -75.6146 160° South  Level FlightAware Approximate
Sun 08:02:00 PM 41.0423 -75.5870 160° South  Level FlightAware Approximate
Sun 08:03:00 PM 40.9828 -75.5691 159° South  Level Estimated
Sun 08:04:00 PM 40.9233 -75.5512 163° South  Level Estimated
Sun 08:05:00 PM 40.8661 -75.5231 160° South  Level FlightAware Approximate
Sun 08:06:00 PM 40.8089 -75.4951 160° South  Level FlightAware Approximate
Sun 08:07:00 PM 40.7517 -75.4671 160° South  Level FlightAware Approximate
Sun 08:08:00 PM 40.6918 -75.4515 190° South  Level Estimated
Sun 08:08:51 PM 40.5500 -75.6167 204° Southwest 263 303 5,500  Level Philadelphia TRACON
Sun 08:09:00 PM 40.6319 -75.4667 191° South  Level FlightAware Approximate
Sun 08:10:00 PM 40.5720 -75.4818 191° South  Level FlightAware Approximate
Sun 08:10:16 PM 40.4500 -75.6000 173° South 252 290 5,000  Level Philadelphia TRACON
Sun 08:11:00 PM 40.5131 -75.4613 187° South  Level Estimated
Sun 08:11:21 PM 40.4000 -75.5500 143° Southeast 249 287 5,000  Level Philadelphia TRACON
Sun 08:12:00 PM 40.4559 -75.4893 200° South  Level FlightAware Approximate
Sun 08:12:21 PM 40.3333 -75.5000 150° Southeast 248 285 5,000  Level Philadelphia TRACON
Sun 08:13:00 PM 40.3979 -75.4644 190° South  Level Estimated
Sun 08:13:21 PM 40.2833 -75.4500 143° Southeast 248 285 5,000  Level Philadelphia TRACON
Sun 08:14:00 PM 40.3377 -75.4993 204° Southwest  Level FlightAware Approximate
Sun 08:14:21 PM 40.2333 -75.3833 134° Southeast 254 292 4,200  Level Philadelphia TRACON
Sun 08:15:21 PM 40.1667 -75.3333 150° Southeast 254 292 4,000 -100 Descending Philadelphia TRACON
Sun 08:16:21 PM 40.1167 -75.2833 143° Southeast 224 258 4,000 -250 Level Philadelphia TRACON
Sun 08:17:21 PM 40.0667 -75.2333 143° Southeast 225 259 3,500 -496 Descending Philadelphia TRACON
Sun 08:18:22 PM 40.0333 -75.1667 123° Southeast 205 236 3,000 -250 Descending Philadelphia TRACON
Sun 08:19:21 PM 40.0167 -75.1000 108° East 206 237 3,000  Level Philadelphia TRACON
Sun 08:20:16 PM 40.0000 -75.0500 114° Southeast 208 239 3,000 -104 Level Philadelphia TRACON
Sun 08:21:16 PM 39.9500 -75.0167 153° Southeast 170 196 2,800 -300 Descending Philadelphia TRACON
Sun 08:22:16 PM 39.9333 -75.0833 252° West 157 181 2,400 -667 Descending Philadelphia TRACON
Sun 08:23:22 PM 39.9167 -75.1333 247° West 144 166 1,400 -762 Descending Philadelphia TRACON
Sun 08:24:22 PM 39.9000 -75.1667 237° Southwest 97 112 800 -550 Descending Philadelphia TRACON
Sun 08:25:22 PM 39.8833 -75.2000 237° Southwest 94 108 300 -500 Descending Philadelphia TRACON

Login

Don't have an account? Register now (free) for customized features, flight alerts, and more!